» Metar & Tafor

30 November 2018
METAR
Pukul : 09.00 UTC
Isi :

METAR WAGI 210900Z 00000KT 8000 BKN011 27/25 Q1007 RERA=


30 Agustus 2018
TAFOR
Pukul : 06-18 UTC
Isi :

TAF WAGI 210500Z 2106/2118 00000KT 8000 -RA BKN011 BECMG 2110/2111 8000 NSW BKN011=


Hal: << First | < Prev | 1 | Next > | Last >>